createdAt,value
2017-02-15T00:00:45.880Z,12
2017-02-15T00:01:59.027Z,12
2017-02-15T00:03:12.195Z,12
2017-02-15T00:04:24.792Z,12
2017-02-15T00:05:37.974Z,12
2017-02-15T00:06:51.140Z,12
2017-02-15T00:08:04.320Z,12
2017-02-15T00:09:31.126Z,12
2017-02-15T00:10:57.745Z,12
2017-02-15T00:12:10.890Z,12
2017-02-15T00:13:24.054Z,12
2017-02-15T00:14:37.231Z,12
2017-02-15T00:15:50.394Z,12
2017-02-15T00:17:03.553Z,12
2017-02-15T00:18:16.169Z,12
2017-02-15T00:19:28.970Z,12
2017-02-15T00:20:42.158Z,12
2017-02-15T00:21:55.324Z,12
2017-02-15T00:23:08.502Z,12
2017-02-15T00:24:21.147Z,12
2017-02-15T00:25:34.621Z,12
2017-02-15T00:26:47.214Z,12
2017-02-15T00:29:27.122Z,12
2017-02-15T00:30:40.779Z,12
2017-02-15T00:31:54.140Z,12
2017-02-15T00:33:07.358Z,12
2017-02-15T00:34:20.600Z,12
2017-02-15T00:35:33.265Z,12
2017-02-15T00:36:46.556Z,12
2017-02-15T00:37:59.877Z,12
2017-02-15T00:39:13.229Z,12
2017-02-15T00:40:26.550Z,12
2017-02-15T00:41:40.295Z,12
2017-02-15T00:42:53.633Z,12
2017-02-15T00:44:20.889Z,12
2017-02-15T00:45:33.564Z,12
2017-02-15T00:46:47.045Z,12
2017-02-15T00:48:00.342Z,12
2017-02-15T00:49:13.539Z,12
2017-02-15T00:50:26.753Z,12
2017-02-15T00:51:54.202Z,12
2017-02-15T00:53:07.398Z,12
2017-02-15T00:54:20.075Z,12
2017-02-15T00:55:33.270Z,12
2017-02-15T00:56:46.434Z,12
2017-02-15T00:57:59.611Z,12
2017-02-15T00:59:12.763Z,12
2017-02-15T01:00:25.920Z,12
2017-02-15T01:01:39.110Z,12
2017-02-15T01:02:52.272Z,12
2017-02-15T01:04:19.432Z,12
2017-02-15T01:05:32.064Z,12
2017-02-15T01:06:45.224Z,12
2017-02-15T01:07:58.593Z,12
2017-02-15T01:09:11.774Z,12
2017-02-15T01:10:24.945Z,12
2017-02-15T01:11:37.547Z,12
2017-02-15T01:13:04.909Z,12
2017-02-15T01:16:13.228Z,12
2017-02-15T01:17:25.825Z,12
2017-02-15T01:18:38.429Z,12
2017-02-15T01:19:51.582Z,12
2017-02-15T01:21:04.733Z,12
2017-02-15T01:22:17.892Z,12
2017-02-15T01:23:31.063Z,12
2017-02-15T01:24:44.237Z,12
2017-02-15T01:25:57.399Z,12
2017-02-15T01:27:10.579Z,12
2017-02-15T01:28:23.178Z,12
2017-02-15T01:29:36.361Z,12
2017-02-15T01:30:49.528Z,12
2017-02-15T01:32:02.791Z,12
2017-02-15T01:33:16.088Z,12
2017-02-15T01:34:28.823Z,12
2017-02-15T01:35:42.111Z,12
2017-02-15T01:36:54.832Z,12
2017-02-15T01:38:08.120Z,12
2017-02-15T01:39:35.611Z,12
2017-02-15T01:40:48.912Z,12
2017-02-15T01:42:16.202Z,12
2017-02-15T01:43:29.543Z,12
2017-02-15T01:44:43.036Z,12
2017-02-15T01:45:55.768Z,12
2017-02-15T01:47:08.485Z,12
2017-02-15T01:48:21.784Z,12
2017-02-15T01:49:35.084Z,12
2017-02-15T01:50:48.387Z,12
2017-02-15T01:52:01.688Z,12
2017-02-15T01:53:15.016Z,12
2017-02-15T01:54:28.321Z,12
2017-02-15T01:55:41.334Z,12
2017-02-15T01:56:54.640Z,12
2017-02-15T01:58:07.946Z,12
2017-02-15T01:59:20.663Z,12
2017-02-15T02:00:33.592Z,12
2017-02-15T02:01:46.887Z,12
2017-02-15T02:03:00.201Z,12
2017-02-15T02:04:13.493Z,12
2017-02-15T02:05:26.211Z,4
2017-02-15T02:06:39.247Z,16
2017-02-15T02:07:52.571Z,12
2017-02-15T02:09:05.857Z,12
2017-02-15T02:10:19.162Z,12
2017-02-15T02:11:32.465Z,12
2017-02-15T02:12:45.796Z,12
2017-02-15T02:13:59.097Z,12
2017-02-15T02:15:26.373Z,12
2017-02-15T02:16:39.416Z,12
2017-02-15T02:17:52.719Z,12
2017-02-15T02:19:06.008Z,12
2017-02-15T02:20:19.319Z,12
2017-02-15T02:21:32.605Z,12
2017-02-15T02:22:45.892Z,12
2017-02-15T02:23:59.187Z,12
2017-02-15T02:25:12.507Z,12
2017-02-15T02:26:25.228Z,12
2017-02-15T02:27:38.163Z,12
2017-02-15T02:28:51.460Z,12
2017-02-15T02:30:04.758Z,12
2017-02-15T02:31:18.048Z,12
2017-02-15T02:32:31.339Z,12
2017-02-15T02:33:44.653Z,12
2017-02-15T02:34:57.946Z,12
2017-02-15T02:36:11.253Z,12
2017-02-15T02:37:24.553Z,12
2017-02-15T02:38:37.859Z,12
2017-02-15T02:39:51.150Z,12
2017-02-15T02:41:04.455Z,12
2017-02-15T02:42:17.172Z,12
2017-02-15T02:43:30.470Z,12
2017-02-15T02:44:43.957Z,12
2017-02-15T02:45:57.245Z,16
2017-02-15T02:47:10.534Z,12
2017-02-15T02:48:23.262Z,16
2017-02-15T02:49:50.744Z,12
2017-02-15T02:51:04.038Z,16
2017-02-15T02:52:17.344Z,12
2017-02-15T02:53:30.636Z,12
2017-02-15T02:54:44.132Z,12
2017-02-15T02:55:57.423Z,12
2017-02-15T02:57:10.724Z,12
2017-02-15T02:58:24.043Z,12
2017-02-15T02:59:37.353Z,12
2017-02-15T03:00:50.875Z,12
2017-02-15T03:02:04.091Z,12
2017-02-15T03:03:15.592Z,12
2017-02-15T03:04:28.787Z,12
2017-02-15T03:05:41.973Z,12
2017-02-15T03:06:55.446Z,12
2017-02-15T03:08:08.609Z,12
2017-02-15T03:09:21.770Z,12
2017-02-15T03:10:34.943Z,12
2017-02-15T03:11:48.310Z,12
2017-02-15T03:13:01.488Z,12
2017-02-15T03:14:14.656Z,12
2017-02-15T03:15:27.241Z,12
2017-02-15T03:16:40.706Z,12
2017-02-15T03:17:53.891Z,12
2017-02-15T03:19:07.068Z,12
2017-02-15T03:20:20.223Z,12
2017-02-15T03:21:33.378Z,12
2017-02-15T03:22:46.543Z,12
2017-02-15T03:23:59.703Z,12
2017-02-15T03:25:12.300Z,12
2017-02-15T03:26:25.457Z,12
2017-02-15T03:27:38.826Z,12
2017-02-15T03:28:51.989Z,12
2017-02-15T03:30:05.163Z,12
2017-02-15T03:32:45.479Z,12
2017-02-15T03:33:58.698Z,12
2017-02-15T03:35:11.303Z,12
2017-02-15T03:36:24.468Z,12
2017-02-15T03:37:37.632Z,12
2017-02-15T03:38:50.801Z,4
2017-02-15T03:40:04.077Z,12
2017-02-15T03:41:17.243Z,12
2017-02-15T03:42:30.410Z,12
2017-02-15T03:43:43.779Z,12
2017-02-15T03:44:56.932Z,12
2017-02-15T03:46:10.102Z,12
2017-02-15T03:47:36.708Z,12
2017-02-15T03:48:49.877Z,12
2017-02-15T03:50:03.043Z,12
2017-02-15T03:51:16.192Z,12
2017-02-15T03:52:28.790Z,12
2017-02-15T03:53:42.245Z,12
2017-02-15T03:54:55.390Z,12
2017-02-15T03:56:08.556Z,12
2017-02-15T03:57:21.177Z,12
2017-02-15T03:58:34.369Z,12
2017-02-15T03:59:47.541Z,12
2017-02-15T04:01:00.719Z,12
2017-02-15T04:02:13.887Z,12
2017-02-15T04:03:27.047Z,12
2017-02-15T04:04:40.208Z,12
2017-02-15T04:05:53.356Z,12
2017-02-15T04:07:06.513Z,12
2017-02-15T04:08:19.675Z,12
2017-02-15T04:09:32.822Z,12
2017-02-15T04:10:45.997Z,12
2017-02-15T04:11:59.167Z,12
2017-02-15T04:13:12.329Z,12
2017-02-15T04:14:25.506Z,12
2017-02-15T04:15:38.872Z,12
2017-02-15T04:16:52.026Z,12
2017-02-15T04:18:05.191Z,12
2017-02-15T04:19:17.242Z,12
2017-02-15T04:20:30.407Z,12
2017-02-15T04:21:43.559Z,12
2017-02-15T04:24:23.892Z,12
2017-02-15T04:25:37.054Z,12
2017-02-15T04:26:50.420Z,12
2017-02-15T04:28:03.589Z,12
2017-02-15T04:29:16.203Z,12
2017-02-15T04:30:28.799Z,12
2017-02-15T04:31:42.041Z,12
2017-02-15T04:32:55.343Z,12
2017-02-15T04:34:08.629Z,12
2017-02-15T04:35:21.352Z,12
2017-02-15T04:36:34.647Z,12
2017-02-15T04:37:47.933Z,12
2017-02-15T04:39:01.235Z,12
2017-02-15T04:40:14.531Z,12
2017-02-15T04:41:27.817Z,12
2017-02-15T04:42:41.431Z,12
2017-02-15T04:43:54.746Z,12
2017-02-15T04:45:08.057Z,12
2017-02-15T04:46:21.369Z,12
2017-02-15T04:47:34.663Z,12
2017-02-15T04:48:48.273Z,12
2017-02-15T04:50:01.560Z,12
2017-02-15T04:51:14.864Z,12
2017-02-15T04:52:28.160Z,12
2017-02-15T04:53:41.644Z,12
2017-02-15T04:54:54.937Z,12
2017-02-15T04:56:08.234Z,12
2017-02-15T04:57:20.956Z,12
2017-02-15T04:58:34.258Z,12
2017-02-15T04:59:47.740Z,12
2017-02-15T05:01:01.066Z,12
2017-02-15T05:02:13.800Z,12
2017-02-15T05:03:27.108Z,12
2017-02-15T05:04:40.605Z,12
2017-02-15T05:05:53.330Z,12
2017-02-15T05:07:06.072Z,12
2017-02-15T05:08:19.356Z,12
2017-02-15T05:09:46.937Z,12
2017-02-15T05:11:00.266Z,12
2017-02-15T05:12:13.579Z,16
2017-02-15T05:13:26.881Z,12
2017-02-15T05:14:40.165Z,12
2017-02-15T05:15:53.698Z,8
2017-02-15T05:17:06.901Z,12
2017-02-15T05:18:20.064Z,12
2017-02-15T05:19:46.652Z,12
2017-02-15T05:20:59.801Z,4
2017-02-15T05:22:12.391Z,12
2017-02-15T05:23:25.550Z,12
2017-02-15T05:24:38.703Z,12
2017-02-15T05:25:51.290Z,12
2017-02-15T05:27:04.660Z,12
2017-02-15T05:28:17.251Z,12
2017-02-15T05:29:30.406Z,12
2017-02-15T05:30:43.609Z,12
2017-02-15T05:31:56.987Z,12
2017-02-15T05:33:10.144Z,12
2017-02-15T05:34:23.315Z,12
2017-02-15T05:35:36.463Z,12
2017-02-15T05:36:49.624Z,12
2017-02-15T05:38:02.772Z,4
2017-02-15T05:39:15.378Z,12
2017-02-15T05:40:28.537Z,12
2017-02-15T05:41:41.864Z,12
2017-02-15T05:42:55.399Z,12
2017-02-15T05:44:08.750Z,12
2017-02-15T05:45:21.506Z,12
2017-02-15T05:46:34.287Z,12
2017-02-15T05:47:48.554Z,12
2017-02-15T05:49:01.890Z,12
2017-02-15T05:50:14.651Z,12
2017-02-15T05:51:28.010Z,12
2017-02-15T05:52:41.345Z,12
2017-02-15T05:53:54.982Z,12
2017-02-15T05:55:08.306Z,12
2017-02-15T05:56:20.959Z,8
2017-02-15T05:57:33.592Z,12
2017-02-15T05:58:46.968Z,12
2017-02-15T06:00:00.127Z,12
2017-02-15T06:01:13.302Z,12
2017-02-15T06:02:25.889Z,12
2017-02-15T06:03:39.056Z,12
2017-02-15T06:04:52.213Z,12
2017-02-15T06:06:05.372Z,12
2017-02-15T06:07:18.560Z,12
2017-02-15T06:08:31.723Z,12
2017-02-15T06:09:45.071Z,12
2017-02-15T06:10:58.245Z,12
2017-02-15T06:12:10.291Z,12
2017-02-15T06:13:23.510Z,12
2017-02-15T06:14:36.116Z,12
2017-02-15T06:15:48.717Z,12
2017-02-15T06:17:01.876Z,12
2017-02-15T06:18:13.921Z,12
2017-02-15T06:19:27.095Z,12
2017-02-15T06:20:40.248Z,12
2017-02-15T06:21:53.695Z,12
2017-02-15T06:23:06.905Z,12
2017-02-15T06:24:20.053Z,12
2017-02-15T06:25:33.209Z,12
2017-02-15T06:26:46.365Z,12
2017-02-15T06:27:59.519Z,8
2017-02-15T06:29:12.688Z,12
2017-02-15T06:30:25.314Z,12
2017-02-15T06:31:38.486Z,12
2017-02-15T06:32:51.645Z,12
2017-02-15T06:34:04.803Z,12
2017-02-15T06:35:16.844Z,12
2017-02-15T06:36:30.026Z,8
2017-02-15T06:37:43.208Z,12
2017-02-15T06:38:56.357Z,12
2017-02-15T06:40:08.961Z,12
2017-02-15T06:41:21.561Z,12
2017-02-15T06:42:34.929Z,12
2017-02-15T06:43:47.535Z,12
2017-02-15T06:45:00.699Z,12
2017-02-15T06:46:13.848Z,12
2017-02-15T06:47:27.003Z,12
2017-02-15T06:48:39.910Z,12
2017-02-15T06:49:52.513Z,8
2017-02-15T06:51:05.740Z,12
2017-02-15T06:53:44.554Z,8
2017-02-15T06:54:57.709Z,12
2017-02-15T06:56:10.309Z,12
2017-02-15T06:57:23.472Z,12
2017-02-15T06:58:36.637Z,12
2017-02-15T06:59:49.243Z,8
2017-02-15T07:01:02.400Z,12
2017-02-15T07:02:14.996Z,12
2017-02-15T07:03:28.164Z,4
2017-02-15T07:04:41.054Z,16
2017-02-15T07:05:54.205Z,12
2017-02-15T07:07:07.359Z,12
2017-02-15T07:08:19.970Z,12
2017-02-15T07:09:33.331Z,12
2017-02-15T07:10:46.494Z,12
2017-02-15T07:11:59.659Z,12
2017-02-15T07:13:12.837Z,12
2017-02-15T07:14:25.996Z,12
2017-02-15T07:15:39.159Z,12
2017-02-15T07:16:52.324Z,12
2017-02-15T07:18:04.919Z,12
2017-02-15T07:19:18.063Z,12
2017-02-15T07:20:31.446Z,16
2017-02-15T07:21:44.592Z,12
2017-02-15T07:22:57.736Z,12
2017-02-15T07:24:10.341Z,12
2017-02-15T07:25:23.529Z,12
2017-02-15T07:26:36.687Z,12
2017-02-15T07:27:49.843Z,12
2017-02-15T07:29:02.439Z,12
2017-02-15T07:30:15.634Z,12
2017-02-15T07:31:29.003Z,12
2017-02-15T07:32:42.253Z,12
2017-02-15T07:33:55.564Z,12
2017-02-15T07:35:08.879Z,12
2017-02-15T07:36:22.167Z,4
2017-02-15T07:37:34.620Z,16
2017-02-15T07:38:47.922Z,12
2017-02-15T07:40:00.659Z,12
2017-02-15T07:41:13.370Z,12
2017-02-15T07:42:26.656Z,12
2017-02-15T07:43:40.238Z,12
2017-02-15T07:45:07.498Z,12
2017-02-15T07:46:33.629Z,12
2017-02-15T07:47:47.220Z,12
2017-02-15T07:49:00.519Z,12
2017-02-15T07:50:13.828Z,12
2017-02-15T07:51:26.549Z,12
2017-02-15T07:52:40.151Z,12
2017-02-15T07:53:53.440Z,8
2017-02-15T07:55:06.751Z,8
2017-02-15T07:56:19.472Z,8
2017-02-15T07:57:47.055Z,12
2017-02-15T07:59:00.352Z,12
2017-02-15T08:00:27.646Z,12
2017-02-15T08:01:40.950Z,12
2017-02-15T08:02:53.884Z,12
2017-02-15T08:04:07.188Z,12
2017-02-15T08:05:20.492Z,12
2017-02-15T08:06:33.795Z,12
2017-02-15T08:07:47.282Z,12
2017-02-15T08:09:00.596Z,12
2017-02-15T08:10:13.899Z,12
2017-02-15T08:11:27.215Z,12
2017-02-15T08:12:40.507Z,12
2017-02-15T08:13:53.811Z,12
2017-02-15T08:15:07.114Z,12
2017-02-15T08:16:20.397Z,12
2017-02-15T08:17:33.682Z,12
2017-02-15T08:18:47.177Z,12
2017-02-15T08:20:00.464Z,12
2017-02-15T08:21:13.197Z,12
2017-02-15T08:22:26.484Z,12
2017-02-15T08:23:39.217Z,12
2017-02-15T08:24:52.701Z,12
2017-02-15T08:26:05.998Z,12
2017-02-15T08:27:19.309Z,12
2017-02-15T08:28:32.600Z,12
2017-02-15T08:29:45.920Z,12
2017-02-15T08:30:59.232Z,12
2017-02-15T08:32:12.529Z,12
2017-02-15T08:33:25.240Z,12
2017-02-15T08:34:37.981Z,12
2017-02-15T08:35:50.437Z,12
2017-02-15T08:37:03.742Z,12
2017-02-15T08:38:17.039Z,12
2017-02-15T08:39:30.325Z,12
2017-02-15T08:40:43.277Z,12
2017-02-15T08:41:56.559Z,8
2017-02-15T08:43:09.863Z,16
2017-02-15T08:44:23.171Z,16
2017-02-15T08:45:35.887Z,16
2017-02-15T08:46:49.523Z,20
2017-02-15T08:48:02.829Z,20
2017-02-15T08:49:15.013Z,20
2017-02-15T08:50:42.275Z,20
2017-02-15T08:51:55.333Z,12
2017-02-15T08:53:08.628Z,16
2017-02-15T08:54:21.944Z,20
2017-02-15T08:57:02.708Z,24
2017-02-15T08:58:15.447Z,28
2017-02-15T08:59:28.760Z,28
2017-02-15T09:00:42.058Z,32
2017-02-15T09:01:55.366Z,36
2017-02-15T09:03:08.689Z,40
2017-02-15T09:04:22.020Z,44
2017-02-15T09:05:35.304Z,48
2017-02-15T09:06:48.620Z,52
2017-02-15T09:08:01.915Z,56
2017-02-15T09:09:14.073Z,56
2017-02-15T09:10:27.379Z,64
2017-02-15T09:11:40.671Z,68
2017-02-15T09:12:53.422Z,68
2017-02-15T09:14:20.698Z,72
2017-02-15T09:15:33.985Z,80
2017-02-15T09:16:47.274Z,84
2017-02-15T09:18:00.792Z,84
2017-02-15T09:19:14.097Z,88
2017-02-15T09:20:27.386Z,92
2017-02-15T09:21:40.102Z,96
2017-02-15T09:22:53.417Z,96
2017-02-15T09:24:06.938Z,100
2017-02-15T09:25:20.225Z,108
2017-02-15T09:26:33.543Z,108
2017-02-15T09:27:46.837Z,112
2017-02-15T09:28:58.996Z,112
2017-02-15T09:30:12.321Z,116
2017-02-15T09:31:25.047Z,120
2017-02-15T09:32:38.345Z,124
2017-02-15T09:34:05.811Z,128
2017-02-15T09:35:19.124Z,132
2017-02-15T09:36:32.438Z,132
2017-02-15T09:37:45.720Z,136
2017-02-15T09:38:59.023Z,136
2017-02-15T09:40:11.992Z,144
2017-02-15T09:41:25.282Z,148
2017-02-15T09:42:38.576Z,148
2017-02-15T09:43:51.860Z,152
2017-02-15T09:46:32.442Z,156
2017-02-15T09:47:45.749Z,156
2017-02-15T09:48:58.488Z,160
2017-02-15T09:50:12.106Z,164
2017-02-15T09:51:25.439Z,164
2017-02-15T09:52:38.753Z,168
2017-02-15T09:53:51.479Z,172
2017-02-15T09:55:04.233Z,172
2017-02-15T09:56:17.729Z,176
2017-02-15T09:57:31.025Z,176
2017-02-15T09:58:44.311Z,180
2017-02-15T09:59:57.606Z,180
2017-02-15T10:01:10.550Z,184
2017-02-15T10:02:23.351Z,184
2017-02-15T10:03:36.654Z,188
2017-02-15T10:04:49.383Z,188
2017-02-15T10:06:02.983Z,192
2017-02-15T10:07:15.705Z,196
2017-02-15T10:08:28.999Z,196
2017-02-15T10:09:55.711Z,200
2017-02-15T10:11:09.009Z,200
2017-02-15T10:12:36.299Z,204
2017-02-15T10:13:49.590Z,200
2017-02-15T10:16:44.157Z,204
2017-02-15T10:17:57.439Z,204
2017-02-15T10:19:10.181Z,204
2017-02-15T10:20:22.922Z,212
2017-02-15T10:21:36.407Z,212
2017-02-15T10:22:49.693Z,216
2017-02-15T10:24:03.013Z,212
2017-02-15T10:25:15.757Z,216
2017-02-15T10:26:29.400Z,220
2017-02-15T10:27:42.137Z,220
2017-02-15T10:28:54.878Z,220
2017-02-15T10:30:08.173Z,220
2017-02-15T10:31:21.487Z,224
2017-02-15T10:32:35.002Z,224
2017-02-15T10:33:48.313Z,228
2017-02-15T10:35:15.578Z,228
2017-02-15T10:36:28.864Z,232
2017-02-15T10:37:42.169Z,232
2017-02-15T10:40:22.184Z,236
2017-02-15T10:41:49.456Z,236
2017-02-15T10:43:03.077Z,240
2017-02-15T10:44:15.229Z,244
2017-02-15T10:45:28.522Z,244
2017-02-15T10:46:41.827Z,244
2017-02-15T10:47:55.113Z,244
2017-02-15T10:49:08.423Z,248
2017-02-15T10:50:21.194Z,248
2017-02-15T10:51:34.491Z,248
2017-02-15T10:52:48.546Z,248
2017-02-15T10:54:01.840Z,256
2017-02-15T10:55:14.592Z,256
2017-02-15T10:56:27.356Z,264
2017-02-15T10:57:40.682Z,260
2017-02-15T10:58:53.987Z,252
2017-02-15T11:00:07.328Z,260
2017-02-15T11:01:20.062Z,260
2017-02-15T11:02:32.803Z,264
2017-02-15T11:03:46.176Z,264
2017-02-15T11:04:59.891Z,268
2017-02-15T11:06:12.723Z,272
2017-02-15T11:07:25.535Z,272
2017-02-15T11:08:38.334Z,276
2017-02-15T11:09:51.700Z,276
2017-02-15T11:11:19.129Z,280
2017-02-15T11:12:32.615Z,280
2017-02-15T11:13:44.925Z,276
2017-02-15T11:14:58.328Z,280
2017-02-15T11:16:11.732Z,284
2017-02-15T11:17:24.539Z,280
2017-02-15T11:18:37.827Z,284
2017-02-15T11:19:50.567Z,284
2017-02-15T11:21:03.295Z,288
2017-02-15T11:22:16.055Z,288
2017-02-15T11:23:29.359Z,292
2017-02-15T11:24:42.683Z,296
2017-02-15T11:25:55.730Z,296
2017-02-15T11:27:09.059Z,300
2017-02-15T11:28:21.821Z,292
2017-02-15T11:29:35.134Z,304
2017-02-15T11:30:48.429Z,308
2017-02-15T11:32:01.189Z,312
2017-02-15T11:33:13.376Z,312
2017-02-15T11:34:26.668Z,316
2017-02-15T11:35:39.985Z,316
2017-02-15T11:36:52.733Z,320
2017-02-15T11:38:06.035Z,324
2017-02-15T11:39:18.190Z,324
2017-02-15T11:40:31.486Z,328
2017-02-15T11:41:44.780Z,332
2017-02-15T11:42:58.084Z,336
2017-02-15T11:44:10.856Z,344
2017-02-15T11:45:24.234Z,348
2017-02-15T11:46:36.587Z,352
2017-02-15T11:47:50.038Z,352
2017-02-15T11:49:03.500Z,356
2017-02-15T11:50:30.866Z,372
2017-02-15T11:51:44.379Z,376
2017-02-15T11:52:57.918Z,376
2017-02-15T11:54:25.421Z,380
2017-02-15T11:55:39.030Z,384
2017-02-15T11:56:52.594Z,384
2017-02-15T11:58:05.078Z,404
2017-02-15T11:59:18.128Z,396
2017-02-15T12:00:31.108Z,408
2017-02-15T12:01:44.742Z,412
2017-02-15T12:02:57.215Z,416
2017-02-15T12:04:10.725Z,420
2017-02-15T12:05:23.656Z,432
2017-02-15T12:06:36.661Z,440
2017-02-15T12:07:50.265Z,436
2017-02-15T12:09:03.833Z,448
2017-02-15T12:10:17.371Z,456
2017-02-15T12:11:29.272Z,464
2017-02-15T12:12:42.873Z,472
2017-02-15T12:13:55.306Z,480
2017-02-15T12:15:08.488Z,480
2017-02-15T12:16:21.493Z,496
2017-02-15T12:17:33.896Z,492
2017-02-15T12:18:47.349Z,500
2017-02-15T12:20:00.278Z,516
2017-02-15T12:21:13.575Z,520
2017-02-15T12:22:26.321Z,528
2017-02-15T12:23:39.644Z,528
2017-02-15T12:24:52.959Z,528
2017-02-15T12:26:06.266Z,528
2017-02-15T12:27:18.994Z,516
2017-02-15T12:28:32.284Z,524
2017-02-15T12:29:45.001Z,528
2017-02-15T12:30:58.287Z,532
2017-02-15T12:32:11.018Z,536
2017-02-15T12:33:23.807Z,540
2017-02-15T12:34:37.107Z,548
2017-02-15T12:35:49.835Z,548
2017-02-15T12:37:03.159Z,560
2017-02-15T12:38:30.437Z,576
2017-02-15T12:39:43.872Z,624
2017-02-15T12:40:57.789Z,692
2017-02-15T12:42:10.696Z,728
2017-02-15T12:43:22.988Z,824
2017-02-15T12:44:36.350Z,940
2017-02-15T12:45:50.117Z,1072
2017-02-15T12:47:03.544Z,1180
2017-02-15T12:48:15.298Z,1300
2017-02-15T12:49:28.797Z,1408
2017-02-15T12:50:42.246Z,1460
2017-02-15T12:51:55.789Z,1520
2017-02-15T12:53:09.109Z,1580
2017-02-15T12:54:21.829Z,1640
2017-02-15T12:55:35.119Z,1692
2017-02-15T12:56:48.408Z,1740
2017-02-15T12:58:01.711Z,1784
2017-02-15T12:59:15.016Z,1832
2017-02-15T13:00:27.749Z,1876
2017-02-15T13:01:41.039Z,1912
2017-02-15T13:02:53.197Z,1928
2017-02-15T13:04:06.501Z,1960
2017-02-15T13:05:19.235Z,1992
2017-02-15T13:06:32.542Z,2024
2017-02-15T13:07:45.847Z,2060
2017-02-15T13:08:59.147Z,2092
2017-02-15T13:10:26.414Z,2100
2017-02-15T13:11:39.704Z,2144
2017-02-15T13:12:53.002Z,2172
2017-02-15T13:14:20.301Z,2196
2017-02-15T13:15:33.613Z,2208
2017-02-15T13:16:46.911Z,2228
2017-02-15T13:17:59.654Z,2240
2017-02-15T13:19:12.971Z,2276
2017-02-15T13:20:39.675Z,2292
2017-02-15T13:21:52.990Z,2292
2017-02-15T13:23:05.907Z,2320
2017-02-15T13:24:18.631Z,2332
2017-02-15T13:25:31.360Z,2336
2017-02-15T13:26:44.082Z,2332
2017-02-15T13:27:56.813Z,2332
2017-02-15T13:29:10.315Z,2356
2017-02-15T13:31:50.341Z,2384
2017-02-15T13:33:03.101Z,2404
2017-02-15T13:34:16.395Z,2400
2017-02-15T13:35:29.707Z,2408
2017-02-15T13:36:43.013Z,2428
2017-02-15T13:37:56.311Z,2488
2017-02-15T13:39:09.246Z,2476
2017-02-15T13:40:22.570Z,2476
2017-02-15T13:41:35.860Z,2480
2017-02-15T13:42:49.181Z,2460
2017-02-15T13:44:02.497Z,2488
2017-02-15T13:45:15.818Z,2524
2017-02-15T13:46:29.305Z,2536
2017-02-15T13:47:42.632Z,2496
2017-02-15T13:48:55.966Z,2468
2017-02-15T13:50:08.728Z,2460
2017-02-15T13:51:35.449Z,2500
2017-02-15T13:52:48.758Z,2500
2017-02-15T13:54:01.498Z,2500
2017-02-15T13:55:14.808Z,2484
2017-02-15T13:56:28.125Z,2460
2017-02-15T13:57:54.847Z,2560
2017-02-15T13:59:08.169Z,2572
2017-02-15T14:00:19.766Z,2628
2017-02-15T14:01:47.065Z,2640
2017-02-15T14:03:13.204Z,2696
2017-02-15T14:04:26.533Z,2736
2017-02-15T14:05:40.147Z,2792
2017-02-15T14:06:53.482Z,2688
2017-02-15T14:08:06.803Z,2704
2017-02-15T14:09:19.545Z,2764
2017-02-15T14:10:33.183Z,788
2017-02-15T14:11:45.928Z,752
2017-02-15T14:12:59.237Z,752
2017-02-15T14:14:12.605Z,952
2017-02-15T14:15:25.915Z,2716
2017-02-15T14:16:39.117Z,2808
2017-02-15T14:17:51.723Z,2884
2017-02-15T14:19:04.886Z,2928
2017-02-15T14:20:18.071Z,2896
2017-02-15T14:21:31.248Z,2868
2017-02-15T14:22:43.867Z,2824
2017-02-15T14:23:57.036Z,2776
2017-02-15T14:25:09.670Z,2780
2017-02-15T14:26:22.295Z,2792
2017-02-15T14:27:35.703Z,2828
2017-02-15T14:28:48.310Z,2620
2017-02-15T14:30:01.483Z,2688
2017-02-15T14:31:12.983Z,2768
2017-02-15T14:32:26.179Z,2704
2017-02-15T14:33:39.652Z,2668
2017-02-15T14:34:52.830Z,2668
2017-02-15T14:36:20.005Z,852
2017-02-15T14:37:33.361Z,844
2017-02-15T14:38:46.522Z,816
2017-02-15T14:39:58.579Z,836
2017-02-15T14:41:11.203Z,888
2017-02-15T14:42:24.362Z,916
2017-02-15T14:43:37.283Z,908
2017-02-15T14:45:04.447Z,896
2017-02-15T14:47:58.780Z,920
2017-02-15T14:49:11.958Z,816
2017-02-15T14:50:25.128Z,808
2017-02-15T14:51:38.281Z,852
2017-02-15T14:52:51.457Z,848
2017-02-15T14:54:04.828Z,840
2017-02-15T14:55:16.309Z,820
2017-02-15T14:56:29.487Z,872
2017-02-15T14:57:42.080Z,2524
2017-02-15T14:58:54.684Z,2768
2017-02-15T15:00:07.835Z,2760
2017-02-15T15:01:20.435Z,2660
2017-02-15T15:02:33.042Z,908
2017-02-15T15:03:46.229Z,856
2017-02-15T15:04:59.617Z,916
2017-02-15T15:06:12.237Z,2676
2017-02-15T15:07:24.875Z,2640
2017-02-15T15:08:38.046Z,2196
2017-02-15T15:09:51.222Z,1764
2017-02-15T15:11:04.585Z,2580
2017-02-15T15:12:17.745Z,2488
2017-02-15T15:13:44.914Z,868
2017-02-15T15:14:57.613Z,740
2017-02-15T15:16:10.986Z,712
2017-02-15T15:17:23.606Z,700
2017-02-15T15:18:36.772Z,732
2017-02-15T15:19:49.947Z,784
2017-02-15T15:21:03.135Z,796
2017-02-15T15:22:15.740Z,784
2017-02-15T15:23:28.911Z,816
2017-02-15T15:24:42.087Z,1668
2017-02-15T15:25:55.254Z,1956
2017-02-15T15:27:08.171Z,828
2017-02-15T15:28:20.233Z,816
2017-02-15T15:31:00.028Z,788
2017-02-15T15:32:12.835Z,784
2017-02-15T15:33:25.455Z,796
2017-02-15T15:34:38.618Z,828
2017-02-15T15:35:51.792Z,856
2017-02-15T15:37:04.389Z,880
2017-02-15T15:38:17.024Z,892
2017-02-15T15:39:30.225Z,964
2017-02-15T15:40:43.400Z,1008
2017-02-15T15:41:56.569Z,1016
2017-02-15T15:43:09.944Z,1044
2017-02-15T15:44:37.135Z,1040
2017-02-15T15:45:50.301Z,1032
2017-02-15T15:47:03.470Z,1036
2017-02-15T15:48:16.567Z,1048
2017-02-15T15:49:29.191Z,1096
2017-02-15T15:50:42.347Z,1224
2017-02-15T15:51:55.504Z,1204
2017-02-15T15:53:08.687Z,1044
2017-02-15T15:54:21.864Z,1176
2017-02-15T15:55:35.054Z,996
2017-02-15T15:56:48.215Z,1036
2017-02-15T15:58:01.371Z,992
2017-02-15T15:59:14.547Z,992
2017-02-15T16:00:27.155Z,1068
2017-02-15T16:01:40.325Z,876
2017-02-15T16:02:53.510Z,784
2017-02-15T16:04:06.123Z,772
2017-02-15T16:05:19.286Z,1212
2017-02-15T16:06:31.906Z,952
2017-02-15T16:07:43.954Z,884
2017-02-15T16:08:57.126Z,844
2017-02-15T16:10:10.519Z,884
2017-02-15T16:11:37.146Z,896
2017-02-15T16:12:50.351Z,932
2017-02-15T16:14:03.537Z,892
2017-02-15T16:15:30.156Z,1160
2017-02-15T16:16:41.655Z,1480
2017-02-15T16:17:54.812Z,1464
2017-02-15T16:19:07.433Z,1436
2017-02-15T16:20:34.807Z,956
2017-02-15T16:21:47.411Z,1328
2017-02-15T16:23:14.243Z,1028
2017-02-15T16:24:27.418Z,1428
2017-02-15T16:25:40.795Z,1464
2017-02-15T16:26:53.993Z,1432
2017-02-15T16:28:06.640Z,1288
2017-02-15T16:29:19.813Z,940
2017-02-15T16:30:32.991Z,920
2017-02-15T16:32:00.169Z,948
2017-02-15T16:33:13.346Z,916
2017-02-15T16:34:26.531Z,948
2017-02-15T16:35:39.188Z,1056
2017-02-15T16:36:52.397Z,996
2017-02-15T16:38:05.637Z,1212
2017-02-15T16:39:18.319Z,984
2017-02-15T16:40:31.589Z,1060
2017-02-15T16:41:45.107Z,1320
2017-02-15T16:42:57.724Z,1000
2017-02-15T16:44:10.335Z,908
2017-02-15T16:45:23.519Z,908
2017-02-15T16:46:36.675Z,920
2017-02-15T16:47:49.831Z,1184
2017-02-15T16:49:02.990Z,988
2017-02-15T16:50:15.066Z,996
2017-02-15T16:51:28.228Z,940
2017-02-15T16:52:41.589Z,948
2017-02-15T16:53:54.759Z,972
2017-02-15T16:55:07.925Z,976
2017-02-15T16:56:20.539Z,996
2017-02-15T16:57:33.137Z,1000
2017-02-15T16:58:46.305Z,1104
2017-02-15T16:59:59.473Z,1272
2017-02-15T17:01:12.635Z,1288
2017-02-15T17:02:25.252Z,1092
2017-02-15T17:03:38.425Z,1028
2017-02-15T17:04:51.599Z,1028
2017-02-15T17:06:04.775Z,1108
2017-02-15T17:07:17.965Z,1272
2017-02-15T17:08:30.561Z,1264
2017-02-15T17:09:44.026Z,1132
2017-02-15T17:10:57.187Z,1148
2017-02-15T17:12:09.820Z,1084
2017-02-15T17:13:22.981Z,1116
2017-02-15T17:14:36.345Z,1096
2017-02-15T17:15:49.508Z,1064
2017-02-15T17:17:02.667Z,1024
2017-02-15T17:18:15.271Z,1108
2017-02-15T17:19:28.441Z,1036
2017-02-15T17:20:41.842Z,1080
2017-02-15T17:22:09.013Z,1068
2017-02-15T17:23:36.187Z,1020
2017-02-15T17:24:49.351Z,916
2017-02-15T17:26:02.729Z,904
2017-02-15T17:27:15.886Z,892
2017-02-15T17:28:29.038Z,916
2017-02-15T17:29:41.659Z,936